Time;durP1;ratioP1;P1;durP2;ratioP2;P2;SDS_P1;SDS_P2;PMS_P1;PMS_P2;Temp;Humidity;BMP_temperature;BMP_pressure;BME280_temperature;BME280_humidity;BME280_pressure;Samples;Min_cycle;Max_cycle;Signal;HPM_P1;HPM_P2
2022/05/04 00:03:06;;;;;;;;;;;;;;;;;;21083013;28;19924;-66
2022/05/04 00:13:08;;;;;;;;;;;15.00;63.30;;;;;;21082161;28;19931;-65
2022/05/04 00:23:10;;;;;;;;;;;;;;;;;;21081734;28;20455;-67
2022/05/04 00:33:12;;;;;;;;;;;;;;;;;;21081846;28;19963;-66
2022/05/04 00:43:14;;;;;;;;;;;;;;;;;;21080772;28;20364;-66
2022/05/04 00:53:15;;;;;;;;;;;;;;;;;;21078779;28;19977;-65
2022/05/04 01:03:17;;;;;;;;;;;;;;;;;;21079277;28;20295;-63
2022/05/04 01:13:20;;;;;;;;;;;;;;;;;;21078959;28;19982;-65
2022/05/04 01:23:22;;;;;;;;;;;14.40;65.10;;;;;;21079567;28;20309;-65
2022/05/04 01:33:24;;;;;;;;;;;;;;;;;;21079313;28;20360;-66
2022/05/04 01:43:29;;;;;;;;;;;;;;;;;;21077889;28;19967;-65
2022/05/04 01:53:38;;;;;;;;;;;;;;;;;;21077375;28;20019;-66
2022/05/04 02:03:59;;;;;;;;;;;14.20;64.80;;;;;;21082035;28;20041;-66
2022/05/04 02:14:12;;;;;;;;;;;;;;;;;;21092797;28;20018;-65
2022/05/04 02:24:20;;;;;;;;;;;13.90;64.90;;;;;;21092363;28;20330;-66
2022/05/04 02:34:33;;;;;;;;;;;;;;;;;;21090823;28;19931;-64
2022/05/04 02:44:45;;;;;;;;;;;;;;;;;;21090602;28;19924;-66
2022/05/04 02:54:56;;;;;;;;;;;;;;;;;;21089202;28;19934;-67
2022/05/04 03:05:18;;;;;;;;;;;;;;;;;;21088450;28;19935;-67
2022/05/04 03:15:26;;;;;;;;;;;;;;;;;;21087541;28;19924;-66
2022/05/04 03:25:32;;;;;;;;;;;;;;;;;;21087424;28;19931;-65
2022/05/04 03:35:37;;;;;;;;;;;;;;;;;;21085927;28;20018;-66
2022/05/04 03:45:40;;;;;;;;;;;;;;;;;;21085243;28;19930;-65
2022/05/04 03:55:42;;;;;;;;;;;;;;;;;;21084525;28;19926;-65
2022/05/04 04:05:44;;;;;;;;;;;;;;;;;;21084371;28;19947;-64
2022/05/04 04:15:45;;;;;;;;;;;;;;;;;;21082654;28;19924;-64
2022/05/04 04:25:47;;;;;;;;;;;;;;;;;;21081879;28;19928;-64
2022/05/04 04:35:53;;;;;;;;;;;;;;;;;;21081430;28;19924;-66
2022/05/04 04:45:55;;;;;;;;;;;;;;;;;;21080402;28;19924;-63
2022/05/04 04:55:56;;;;;;;;;;;;;;;;;;21079573;28;19924;-64
2022/05/04 05:05:58;;;;;;;;;;;;;;;;;;21080285;28;19924;-60
2022/05/04 05:16:08;;;;;;;;;;;;;;;;;;21078601;28;20081;-62
2022/05/04 05:26:10;;;;;;;;;;;;;;;;;;21060851;28;19925;-62
2022/05/04 05:36:11;;;;;;;;;;;;;;;;;;21080208;28;19990;-62
2022/05/04 05:46:13;;;;;;;;;;;;;;;;;;21094483;28;19924;-62
2022/05/04 05:56:14;;;;;;;;;;;13.50;64.90;;;;;;21094523;28;19923;-62
2022/05/04 06:06:16;;;;;;;;;;;12.90;66.60;;;;;;21094536;28;19932;-62
2022/05/04 06:16:17;;;;;;;;;;;12.50;68.00;;;;;;21094381;28;19951;-61
2022/05/04 06:26:20;;;;;;;;;;;12.60;67.90;;;;;;21091316;28;19954;-63
2022/05/04 06:36:22;;;;;;;;;;;12.70;67.20;;;;;;21072658;28;20356;-62
2022/05/04 06:46:24;;;;;;;;;;;13.00;66.60;;;;;;21090397;28;19924;-62
2022/05/04 06:56:25;;;;;;;;;;;13.20;66.10;;;;;;21089799;28;19977;-62
2022/05/04 07:06:27;;;;;;;;;;;13.40;65.10;;;;;;21088740;28;20415;-62
2022/05/04 07:16:29;;;;;;;;;;;13.50;64.60;;;;;;21069135;28;19950;-62
2022/05/04 07:26:30;;;;;;;;;;;13.70;63.40;;;;;;21068667;28;19924;-62
2022/05/04 07:36:32;;;;;;;;;;;13.80;63.50;;;;;;21085869;28;19930;-62
2022/05/04 07:46:34;;;;;;;;;;;14.00;63.10;;;;;;21086307;28;19924;-62
2022/05/04 07:56:35;;;;;;;;;;;14.40;62.70;;;;;;21084310;28;19966;-63
2022/05/04 08:06:37;;;;;;;;;;;14.60;62.20;;;;;;21082832;28;19928;-63
2022/05/04 08:16:39;;;;;;;;;;;15.60;59.80;;;;;;21082864;28;20395;-62
2022/05/04 08:26:42;;;;;;;;;;;16.20;58.30;;;;;;21082805;28;19924;-64
2022/05/04 08:36:43;;;;;;;;;;;16.50;56.80;;;;;;21081501;28;19924;-64
2022/05/04 08:46:45;;;;;;;;;;;16.10;57.60;;;;;;21061812;28;19932;-63
2022/05/04 08:56:47;;;;;;;;;;;16.60;57.40;;;;;;21080123;28;19992;-63
2022/05/04 09:06:50;;;;;;;;;;;16.80;56.80;;;;;;21080876;28;20396;-62
2022/05/04 09:16:52;;;;;;;;;;;17.30;55.30;;;;;;21077988;28;19924;-63
2022/05/04 09:26:55;;;;;;;;;;;17.20;54.70;;;;;;21078195;28;19932;-62
2022/05/04 09:47:31;;;;;;;;;;;17.20;55.00;;;;;;21077293;28;19931;-64
2022/05/04 09:57:33;;;;;;;;;;;17.80;53.40;;;;;;21077930;28;20028;-64
2022/05/04 10:07:37;;;;;;;;;;;17.90;53.40;;;;;;21076773;28;19931;-63
2022/05/04 10:17:45;;;;;;;;;;;18.00;53.20;;;;;;21078841;28;19932;-64
2022/05/04 10:27:47;;;;;;;;;;;18.00;52.80;;;;;;21085075;28;20376;-65
2022/05/04 10:37:58;;;;;;;;;;;18.50;52.40;;;;;;21091018;28;19977;-64
2022/05/04 10:48:18;;;;;;;;;;;18.60;51.60;;;;;;21039098;28;20303;-68
2022/05/04 10:58:38;;;;;;;;;;;18.90;51.50;;;;;;21069533;28;19924;-74
2022/05/04 11:08:45;;;;;;;;;;;19.10;50.40;;;;;;21034100;28;19928;-70
2022/05/04 11:18:47;;;;;;;;;;;19.60;49.00;;;;;;21045004;28;20388;-63
2022/05/04 11:28:49;;;;;;;;;;;19.70;47.70;;;;;;21063883;28;19928;-60
2022/05/04 11:38:50;;;;;;;;;;;19.90;46.30;;;;;;21080441;28;20394;-62
2022/05/04 11:48:55;;;;;;;;;;;20.00;45.50;;;;;;21168514;28;19966;-61
2022/05/04 11:58:57;;;;;;;;;;;19.70;46.00;;;;;;21168490;28;19934;-62
2022/05/04 12:08:59;;;;;;;;;;;19.60;46.60;;;;;;21167696;28;19927;-60
2022/05/04 12:19:01;;;;;;;;;;;19.90;45.60;;;;;;21166637;28;19959;-60
2022/05/04 12:39:22;;;;;;;;;;;19.60;45.30;;;;;;21166092;28;19924;-59
2022/05/04 12:49:25;;;;;;;;;;;19.40;45.70;;;;;;21163657;28;19927;-61
2022/05/04 12:59:26;;;;;;;;;;;19.60;45.10;;;;;;21146265;28;20375;-62
2022/05/04 13:09:28;;;;;;;;;;;20.00;43.80;;;;;;21163563;28;20018;-64
2022/05/04 13:19:31;;;;;;;;;;;20.80;42.90;;;;;;21163774;28;20422;-62
2022/05/04 13:29:33;;;;;;;;;;;21.10;41.80;;;;;;21144965;28;20425;-62
2022/05/04 13:39:36;;;;;;;;;;;20.90;41.80;;;;;;21162483;28;19924;-62
2022/05/04 13:49:38;;;;;;;;;;;20.70;42.20;;;;;;21154122;28;20295;-62
2022/05/04 13:59:40;;;;;;;;;;;20.70;42.20;;;;;;21165549;28;19923;-61
2022/05/04 14:09:42;;;;;;;;;;;20.80;42.50;;;;;;21178149;28;20354;-62
2022/05/04 14:19:44;;;;;;;;;;;21.00;42.70;;;;;;21177322;28;19924;-61
2022/05/04 14:29:46;;;;;;;;;;;21.40;42.50;;;;;;21177273;28;20299;-61
2022/05/04 14:39:48;;;;;;;;;;;21.30;41.20;;;;;;21177468;28;19975;-62
2022/05/04 14:49:49;;;;;;;;;;;21.30;40.70;;;;;;21174226;28;19923;-61
2022/05/04 14:59:51;;;;;;;;;;;20.80;45.10;;;;;;21174005;28;19930;-61
2022/05/04 15:09:53;;;;;;;;;;;20.70;44.90;;;;;;21172167;28;20011;-63
2022/05/04 15:19:54;;;;;;;;;;;20.70;43.50;;;;;;21173493;28;19924;-62
2022/05/04 15:29:56;;;;;;;;;;;21.00;41.70;;;;;;21172297;28;20276;-61
2022/05/04 15:39:58;;;;;;;;;;;21.40;39.30;;;;;;21170674;28;20032;-62
2022/05/04 15:50:00;;;;;;;;;;;21.70;39.00;;;;;;21174188;28;19963;-64
2022/05/04 16:00:04;;;;;;;;;;;21.30;38.90;;;;;;21172290;28;20348;-62
2022/05/04 16:10:06;;;;;;;;;;;21.40;38.90;;;;;;21171215;28;20273;-62
2022/05/04 16:30:28;;;;;;;;;;;21.20;40.20;;;;;;21168100;28;19928;-68
2022/05/04 16:40:30;;;;;;;;;;;21.10;39.40;;;;;;21165747;28;19924;-70
2022/05/04 16:50:33;;;;;;;;;;;21.00;37.80;;;;;;21165654;28;20208;-66
2022/05/04 17:00:35;;;;;;;;;;;20.80;39.40;;;;;;21165656;28;19931;-70
2022/05/04 17:10:37;;;;;;;;;;;20.80;38.30;;;;;;21147967;28;20248;-63
2022/05/04 17:20:38;;;;;;;;;;;20.60;39.60;;;;;;21163247;28;19929;-65
2022/05/04 17:30:40;;;;;;;;;;;20.50;40.30;;;;;;21163943;28;19931;-68
2022/05/04 17:40:42;;;;;;;;;;;20.40;41.70;;;;;;21179530;28;20375;-68
2022/05/04 17:50:43;;;;;;;;;;;20.20;42.90;;;;;;21180339;28;19924;-63
2022/05/04 18:00:45;;;;;;;;;;;20.20;42.70;;;;;;21179005;28;19924;-62
2022/05/04 18:10:47;;;;;;;;;;;19.70;43.40;;;;;;21179314;28;19951;-62
2022/05/04 18:20:49;;;;;;;;;;;19.60;44.10;;;;;;21177219;28;20030;-64
2022/05/04 18:30:51;;;;;;;;;;;19.50;44.60;;;;;;21176745;28;19981;-62
2022/05/04 18:40:52;;;;;;;;;;;19.30;44.80;;;;;;21176111;28;19946;-63
2022/05/04 18:50:55;;;;;;;;;;;19.20;44.40;;;;;;21175021;28;19924;-67
2022/05/04 19:00:57;;;;;;;;;;;19.20;44.00;;;;;;21177272;28;20023;-64
2022/05/04 19:10:58;;;;;;;;;;;19.10;43.30;;;;;;21180107;28;19924;-66
2022/05/04 19:21:00;;;;;;;;;;;19.00;43.10;;;;;;21189100;28;19923;-64
2022/05/04 19:31:03;;;;;;;;;;;18.90;43.50;;;;;;21202896;28;19924;-64
2022/05/04 19:41:04;;;;;;;;;;;18.70;44.10;;;;;;21173568;28;19976;-65
2022/05/04 19:51:06;;;;;;;;;;;18.70;44.50;;;;;;21171401;28;19923;-67
2022/05/04 20:01:08;;;;;;;;;;;18.60;45.20;;;;;;21170885;28;19931;-63
2022/05/04 20:11:10;;;;;;;;;;;18.60;46.30;;;;;;21172379;28;19923;-66
2022/05/04 20:21:11;;;;;;;;;;;18.50;47.90;;;;;;21169276;28;20298;-65
2022/05/04 20:31:17;;;;;;;;;;;18.40;48.80;;;;;;21169385;28;20284;-65
2022/05/04 20:41:18;;;;;;;;;;;18.30;49.10;;;;;;21167856;28;19928;-65
2022/05/04 21:01:41;;;;;;;;;;;18.20;50.20;;;;;;21164983;28;20000;-65
2022/05/04 21:11:43;;;;;;;;;;;18.00;50.50;;;;;;21163900;28;19930;-65
2022/05/04 21:21:45;;;;;;;;;;;18.10;50.80;;;;;;21163954;28;19924;-65
2022/05/04 21:31:47;;;;;;;;;;;18.00;51.20;;;;;;21164405;28;20387;-64
2022/05/04 21:41:49;;;;;;;;;;;17.90;51.70;;;;;;21162736;28;19936;-63
2022/05/04 21:51:53;;;;;;;;;;;17.80;52.50;;;;;;21163578;28;19923;-64
2022/05/04 22:01:55;;;;;;;;;;;17.70;52.90;;;;;;21162748;28;19945;-65
2022/05/04 22:22:17;;;;;;;;;;;17.20;54.70;;;;;;21168297;28;20288;-64
2022/05/04 22:32:18;;;;;;;;;;;16.90;55.90;;;;;;21176817;28;19950;-63
2022/05/04 22:42:20;;;;;;;;;;;16.80;56.60;;;;;;21157889;28;19984;-66
2022/05/04 22:52:22;;;;;;;;;;;16.70;56.90;;;;;;21175153;28;19923;-64
2022/05/04 23:02:24;;;;;;;;;;;16.70;57.50;;;;;;21178222;28;19966;-65
2022/05/04 23:12:26;;;;;;;;;;;16.40;58.30;;;;;;21175455;28;19931;-63
2022/05/04 23:22:28;;;;;;;;;;;16.10;58.80;;;;;;21181482;28;19924;-64
2022/05/04 23:32:29;;;;;;;;;;;16.00;57.80;;;;;;21178093;28;20014;-64
2022/05/04 23:42:31;;;;;;;;;;;15.70;57.80;;;;;;21173282;28;20011;-66
2022/05/04 23:52:36;;;;;;;;;;;15.50;58.50;;;;;;21170391;28;19931;-65
